sensor_id;sensor_type;location;lat;lon;timestamp;P1;durP1;ratioP1;P2;durP2;ratioP2
27869;SDS011;15225;50.730;4.244;2024-02-23T08:12:40;10.10;;;2.10;;
27869;SDS011;15225;50.730;4.244;2024-02-23T08:15:06;14.45;;;2.13;;
27869;SDS011;15225;50.730;4.244;2024-02-23T08:17:32;14.52;;;2.78;;
27869;SDS011;15225;50.730;4.244;2024-02-23T08:19:58;11.95;;;2.60;;
27869;SDS011;15225;50.730;4.244;2024-02-23T08:22:24;15.80;;;2.85;;
27869;SDS011;15225;50.730;4.244;2024-02-23T17:32:44;4.30;;;2.10;;
27869;SDS011;15225;50.730;4.244;2024-02-23T17:35:10;6.13;;;2.00;;
27869;SDS011;15225;50.730;4.244;2024-02-23T17:37:36;5.07;;;2.13;;
27869;SDS011;15225;50.730;4.244;2024-02-23T17:40:02;6.65;;;2.15;;
27869;SDS011;15225;50.730;4.244;2024-02-23T17:42:28;6.68;;;2.40;;
27869;SDS011;15225;50.730;4.244;2024-02-23T17:44:54;5.97;;;2.83;;
27869;SDS011;15225;50.730;4.244;2024-02-23T17:47:19;5.50;;;1.90;;
27869;SDS011;15225;50.730;4.244;2024-02-23T17:49:45;7.82;;;1.52;;
27869;SDS011;15225;50.730;4.244;2024-02-23T17:52:12;4.95;;;2.40;;
27869;SDS011;15225;50.730;4.244;2024-02-23T17:54:39;4.68;;;1.73;;
27869;SDS011;15225;50.730;4.244;2024-02-23T17:57:04;6.32;;;2.70;;
27869;SDS011;15225;50.730;4.244;2024-02-23T17:59:30;6.80;;;1.70;;
27869;SDS011;15225;50.730;4.244;2024-02-23T18:01:56;6.38;;;1.60;;
27869;SDS011;15225;50.730;4.244;2024-02-23T18:04:22;5.82;;;1.92;;
27869;SDS011;15225;50.730;4.244;2024-02-23T18:06:48;4.43;;;1.60;;
27869;SDS011;15225;50.730;4.244;2024-02-23T18:09:19;6.20;;;1.92;;
27869;SDS011;15225;50.730;4.244;2024-02-23T18:11:45;3.88;;;1.92;;
27869;SDS011;15225;50.730;4.244;2024-02-23T18:14:14;4.75;;;2.10;;
27869;SDS011;15225;50.730;4.244;2024-02-23T18:16:42;4.72;;;1.80;;
27869;SDS011;15225;50.730;4.244;2024-02-23T18:19:09;7.00;;;1.80;;
27869;SDS011;15225;50.730;4.244;2024-02-23T18:21:35;3.47;;;1.95;;
27869;SDS011;15225;50.730;4.244;2024-02-23T18:24:00;4.32;;;2.42;;
27869;SDS011;15225;50.730;4.244;2024-02-23T18:26:26;6.82;;;2.00;;
27869;SDS011;15225;50.730;4.244;2024-02-23T18:28:52;9.05;;;3.25;;
27869;SDS011;15225;50.730;4.244;2024-02-23T18:31:18;4.97;;;1.88;;
27869;SDS011;15225;50.730;4.244;2024-02-23T18:33:45;8.65;;;2.50;;
27869;SDS011;15225;50.730;4.244;2024-02-23T18:36:11;4.53;;;1.95;;
27869;SDS011;15225;50.730;4.244;2024-02-23T18:38:43;5.80;;;2.75;;
27869;SDS011;15225;50.730;4.244;2024-02-23T18:41:09;9.85;;;2.17;;
27869;SDS011;15225;50.730;4.244;2024-02-23T18:43:37;3.50;;;2.22;;
27869;SDS011;15225;50.730;4.244;2024-02-23T18:46:06;5.35;;;2.38;;
27869;SDS011;15225;50.730;4.244;2024-02-23T18:48:33;8.30;;;2.40;;
27869;SDS011;15225;50.730;4.244;2024-02-23T18:50:59;2.97;;;1.95;;
27869;SDS011;15225;50.730;4.244;2024-02-23T18:53:27;2.78;;;1.48;;
27869;SDS011;15225;50.730;4.244;2024-02-23T18:55:53;1.88;;;1.25;;
27869;SDS011;15225;50.730;4.244;2024-02-23T18:58:19;5.05;;;1.77;;
27869;SDS011;15225;50.730;4.244;2024-02-23T19:00:45;2.30;;;1.40;;
27869;SDS011;15225;50.730;4.244;2024-02-23T19:03:10;3.17;;;1.50;;
27869;SDS011;15225;50.730;4.244;2024-02-23T19:05:37;5.07;;;1.75;;
27869;SDS011;15225;50.730;4.244;2024-02-23T19:08:05;3.15;;;1.30;;
27869;SDS011;15225;50.730;4.244;2024-02-23T19:10:31;3.30;;;1.42;;
27869;SDS011;15225;50.730;4.244;2024-02-23T19:12:57;5.70;;;1.70;;
27869;SDS011;15225;50.730;4.244;2024-02-23T19:15:23;2.42;;;1.10;;
27869;SDS011;15225;50.730;4.244;2024-02-23T19:17:50;1.58;;;0.80;;
27869;SDS011;15225;50.730;4.244;2024-02-23T19:20:16;0.95;;;0.80;;
27869;SDS011;15225;50.730;4.244;2024-02-23T19:22:41;1.35;;;0.90;;
27869;SDS011;15225;50.730;4.244;2024-02-23T19:25:08;1.23;;;1.08;;
27869;SDS011;15225;50.730;4.244;2024-02-23T19:27:44;2.22;;;1.33;;
27869;SDS011;15225;50.730;4.244;2024-02-23T19:30:09;1.52;;;1.15;;
27869;SDS011;15225;50.730;4.244;2024-02-23T19:32:39;2.25;;;1.45;;
27869;SDS011;15225;50.730;4.244;2024-02-23T19:35:05;1.35;;;1.15;;
27869;SDS011;15225;50.730;4.244;2024-02-23T19:37:31;2.40;;;1.10;;
27869;SDS011;15225;50.730;4.244;2024-02-23T19:39:58;1.67;;;1.08;;
27869;SDS011;15225;50.730;4.244;2024-02-23T19:42:23;2.15;;;1.02;;
27869;SDS011;15225;50.730;4.244;2024-02-23T19:44:50;2.45;;;1.13;;
27869;SDS011;15225;50.730;4.244;2024-02-23T19:47:15;1.23;;;1.10;;
27869;SDS011;15225;50.730;4.244;2024-02-23T19:49:41;2.67;;;0.90;;
27869;SDS011;15225;50.730;4.244;2024-02-23T19:52:07;1.77;;;0.90;;
27869;SDS011;15225;50.730;4.244;2024-02-23T19:54:35;3.17;;;1.40;;
27869;SDS011;15225;50.730;4.244;2024-02-23T19:57:01;2.38;;;1.15;;
27869;SDS011;15225;50.730;4.244;2024-02-23T19:59:30;2.20;;;1.20;;
27869;SDS011;15225;50.730;4.244;2024-02-23T20:02:01;3.60;;;1.40;;
27869;SDS011;15225;50.730;4.244;2024-02-23T20:04:37;2.70;;;1.40;;
27869;SDS011;15225;50.730;4.244;2024-02-23T20:07:06;4.13;;;1.45;;
27869;SDS011;15225;50.730;4.244;2024-02-23T20:09:37;2.00;;;1.50;;
27869;SDS011;15225;50.730;4.244;2024-02-23T20:12:04;1.38;;;1.13;;
27869;SDS011;15225;50.730;4.244;2024-02-23T20:14:31;3.10;;;1.40;;
27869;SDS011;15225;50.730;4.244;2024-02-23T20:16:57;1.88;;;1.23;;
27869;SDS011;15225;50.730;4.244;2024-02-23T20:19:23;2.45;;;1.45;;
27869;SDS011;15225;50.730;4.244;2024-02-23T20:21:48;2.50;;;1.85;;
27869;SDS011;15225;50.730;4.244;2024-02-23T20:24:14;2.38;;;1.77;;
27869;SDS011;15225;50.730;4.244;2024-02-23T20:26:40;3.28;;;1.83;;
27869;SDS011;15225;50.730;4.244;2024-02-23T20:29:06;4.93;;;2.20;;
27869;SDS011;15225;50.730;4.244;2024-02-23T20:31:32;4.18;;;2.03;;
27869;SDS011;15225;50.730;4.244;2024-02-23T20:34:03;7.68;;;3.78;;
27869;SDS011;15225;50.730;4.244;2024-02-23T20:36:32;8.85;;;3.95;;
27869;SDS011;15225;50.730;4.244;2024-02-23T20:38:58;14.50;;;6.25;;
27869;SDS011;15225;50.730;4.244;2024-02-23T20:41:24;16.02;;;8.00;;
27869;SDS011;15225;50.730;4.244;2024-02-23T20:43:52;17.63;;;8.48;;
27869;SDS011;15225;50.730;4.244;2024-02-23T20:46:19;16.65;;;8.95;;
27869;SDS011;15225;50.730;4.244;2024-02-23T20:48:48;16.17;;;8.52;;
27869;SDS011;15225;50.730;4.244;2024-02-23T20:51:14;14.93;;;7.60;;
27869;SDS011;15225;50.730;4.244;2024-02-23T20:53:40;11.68;;;6.93;;
27869;SDS011;15225;50.730;4.244;2024-02-23T20:56:05;13.73;;;6.40;;
27869;SDS011;15225;50.730;4.244;2024-02-23T20:58:34;11.23;;;5.13;;
27869;SDS011;15225;50.730;4.244;2024-02-23T21:01:00;7.03;;;4.00;;
27869;SDS011;15225;50.730;4.244;2024-02-23T21:03:29;5.63;;;3.33;;
27869;SDS011;15225;50.730;4.244;2024-02-23T21:05:55;5.03;;;2.95;;
27869;SDS011;15225;50.730;4.244;2024-02-23T21:08:20;7.72;;;3.33;;
27869;SDS011;15225;50.730;4.244;2024-02-23T21:10:46;7.82;;;3.42;;
27869;SDS011;15225;50.730;4.244;2024-02-23T21:13:13;8.27;;;3.53;;
27869;SDS011;15225;50.730;4.244;2024-02-23T21:15:38;7.45;;;3.70;;
27869;SDS011;15225;50.730;4.244;2024-02-23T21:18:04;8.13;;;3.88;;
27869;SDS011;15225;50.730;4.244;2024-02-23T21:20:30;10.75;;;5.05;;
27869;SDS011;15225;50.730;4.244;2024-02-23T21:22:55;11.70;;;4.75;;
27869;SDS011;15225;50.730;4.244;2024-02-23T21:25:21;8.82;;;4.50;;
27869;SDS011;15225;50.730;4.244;2024-02-23T21:27:47;8.73;;;3.83;;
27869;SDS011;15225;50.730;4.244;2024-02-23T21:30:12;7.20;;;3.47;;
27869;SDS011;15225;50.730;4.244;2024-02-23T21:32:38;5.53;;;3.15;;
27869;SDS011;15225;50.730;4.244;2024-02-23T21:35:05;5.07;;;2.60;;
27869;SDS011;15225;50.730;4.244;2024-02-23T21:37:31;6.03;;;3.08;;
27869;SDS011;15225;50.730;4.244;2024-02-23T21:39:56;5.32;;;2.05;;
27869;SDS011;15225;50.730;4.244;2024-02-23T21:42:22;5.22;;;2.47;;
27869;SDS011;15225;50.730;4.244;2024-02-23T21:44:48;4.05;;;2.55;;
27869;SDS011;15225;50.730;4.244;2024-02-23T21:47:13;4.93;;;2.30;;
27869;SDS011;15225;50.730;4.244;2024-02-23T21:49:39;2.72;;;1.63;;
27869;SDS011;15225;50.730;4.244;2024-02-23T21:52:05;6.20;;;2.20;;
27869;SDS011;15225;50.730;4.244;2024-02-23T21:54:31;3.65;;;1.60;;
27869;SDS011;15225;50.730;4.244;2024-02-23T21:56:58;3.63;;;1.60;;
